This is the latest recevied weather packets stored in our database for station/object N7IGG. If no packets are shown the sender has not sent any weather packets the latest 1 day(s).
| Time | Temp. | Humidity | Pressure | Rain* | Wind** | Luminosity | Snow |
|---|---|---|---|---|---|---|---|
| 1778010051 | 13.89° C | 86% | 1016.7 hPa | 0 mm | 0.89 m/s, 120° | 120 W/m² | - |
| 1778009749 | 13.89° C | 86% | 1016.8 hPa | 0 mm | 0.89 m/s, 204° | 124 W/m² | - |
| 1778009446 | 13.89° C | 86% | 1016.8 hPa | 0 mm | 0.89 m/s, 158° | 114 W/m² | - |
| 1778009144 | 13.89° C | 86% | 1016.8 hPa | 0 mm | 1.34 m/s, 192° | 111 W/m² | - |
| 1778008842 | 13.89° C | 87% | 1016.9 hPa | 0 mm | 0.89 m/s, 152° | 111 W/m² | - |
| 1778008540 | 13.89° C | 87% | 1016.9 hPa | 0 mm | 0.89 m/s, 173° | 108 W/m² | - |
| 1778008238 | 13.89° C | 87% | 1016.9 hPa | 0 mm | 0.89 m/s, 180° | 102 W/m² | - |
| 1778007936 | 13.33° C | 87% | 1016.6 hPa | 0 mm | 1.34 m/s, 184° | 109 W/m² | - |
| 1778007628 | 13.33° C | 87% | 1016.8 hPa | 0 mm | 2.24 m/s, 192° | 121 W/m² | - |
| 1778007325 | 13.89° C | 87% | 1016.6 hPa | 0 mm | 0.89 m/s, 188° | 103 W/m² | - |
| 1778007022 | 13.33° C | 87% | 1016.6 hPa | 0 mm | 0.89 m/s, 194° | 104 W/m² | - |
| 1778006719 | 13.33° C | 87% | 1016.5 hPa | 0 mm | 1.79 m/s, 194° | 113 W/m² | - |
| 1778006415 | 13.33° C | 88% | 1016.9 hPa | 0 mm | 0.89 m/s, 187° | 111 W/m² | - |
| 1778006112 | 13.33° C | 88% | 1016.6 hPa | 0 mm | 1.34 m/s, 180° | 108 W/m² | - |
| 1778005809 | 13.33° C | 89% | 1016.8 hPa | 0 mm | 1.79 m/s, 199° | 109 W/m² | - |
| 1778005506 | 13.33° C | 89% | 1016.7 hPa | 0 mm | 0.89 m/s, 180° | 108 W/m² | - |
| 1778005202 | 13.33° C | 89% | 1016.7 hPa | 0 mm | 0.89 m/s, 174° | 103 W/m² | - |
| 1778004899 | 12.78° C | 89% | 1016.5 hPa | 0 mm | 0.89 m/s, 156° | 98 W/m² | - |
| 1778004596 | 12.78° C | 89% | 1016.6 hPa | 0 mm | 1.79 m/s, 193° | 106 W/m² | - |
| 1778004292 | 12.78° C | 88% | 1016.5 hPa | 0 mm | 1.79 m/s, 195° | 94 W/m² | - |
| 1778003989 | 13.33° C | 88% | 1016.6 hPa | 0 mm | 0.45 m/s, 157° | 99 W/m² | - |
| 1778003685 | 13.33° C | 88% | 1016.6 hPa | 0 mm | 1.79 m/s, 196° | 102 W/m² | - |
| 1778003382 | 13.33° C | 88% | 1016.7 hPa | 0 mm | 1.34 m/s, 178° | 98 W/m² | - |
| 1778003079 | 13.33° C | 88% | 1016.7 hPa | 0 mm | 0 m/s | 100 W/m² | - |
| 1778002775 | 13.33° C | 88% | 1016.6 hPa | 0 mm | 1.79 m/s, 194° | 99 W/m² | - |
* Rain latest hour (hover to see other rain measurements)
** Current wind speed in m/s (hover to see current wind gust speed)